sensor_id;sensor_type;location;lat;lon;timestamp;P1;durP1;ratioP1;P2;durP2;ratioP2
41903;SDS011;27586;51.124;4.182;2024-01-15T00:01:56;9.13;;;5.00;;
41903;SDS011;27586;51.124;4.182;2024-01-15T00:04:22;7.70;;;4.90;;
41903;SDS011;27586;51.124;4.182;2024-01-15T00:06:48;8.40;;;5.33;;
41903;SDS011;27586;51.124;4.182;2024-01-15T00:09:14;7.27;;;4.63;;
41903;SDS011;27586;51.124;4.182;2024-01-15T00:11:40;6.17;;;4.50;;
41903;SDS011;27586;51.124;4.182;2024-01-15T00:14:07;5.82;;;4.25;;
41903;SDS011;27586;51.124;4.182;2024-01-15T00:16:33;7.17;;;3.80;;
41903;SDS011;27586;51.124;4.182;2024-01-15T00:18:58;5.63;;;3.90;;
41903;SDS011;27586;51.124;4.182;2024-01-15T00:21:24;6.87;;;4.07;;
41903;SDS011;27586;51.124;4.182;2024-01-15T00:23:50;9.17;;;3.17;;
41903;SDS011;27586;51.124;4.182;2024-01-15T00:26:16;5.50;;;3.37;;
41903;SDS011;27586;51.124;4.182;2024-01-15T00:28:41;6.93;;;3.37;;
41903;SDS011;27586;51.124;4.182;2024-01-15T00:31:07;7.07;;;3.33;;
41903;SDS011;27586;51.124;4.182;2024-01-15T00:33:33;7.67;;;3.87;;
41903;SDS011;27586;51.124;4.182;2024-01-15T00:35:58;5.43;;;3.40;;
41903;SDS011;27586;51.124;4.182;2024-01-15T00:38:24;4.37;;;3.10;;
41903;SDS011;27586;51.124;4.182;2024-01-15T00:40:50;6.37;;;3.10;;
41903;SDS011;27586;51.124;4.182;2024-01-15T00:43:15;6.07;;;3.23;;
41903;SDS011;27586;51.124;4.182;2024-01-15T00:45:44;4.90;;;3.10;;
41903;SDS011;27586;51.124;4.182;2024-01-15T00:48:10;5.20;;;3.70;;
41903;SDS011;27586;51.124;4.182;2024-01-15T00:50:36;5.57;;;3.53;;
41903;SDS011;27586;51.124;4.182;2024-01-15T00:53:01;4.03;;;3.17;;
41903;SDS011;27586;51.124;4.182;2024-01-15T00:55:28;7.23;;;3.37;;
41903;SDS011;27586;51.124;4.182;2024-01-15T00:57:54;3.90;;;2.85;;
41903;SDS011;27586;51.124;4.182;2024-01-15T01:00:20;5.80;;;2.88;;
41903;SDS011;27586;51.124;4.182;2024-01-15T01:02:45;5.50;;;2.83;;
41903;SDS011;27586;51.124;4.182;2024-01-15T01:05:11;5.75;;;3.00;;
41903;SDS011;27586;51.124;4.182;2024-01-15T01:07:37;7.10;;;2.70;;
41903;SDS011;27586;51.124;4.182;2024-01-15T01:10:03;4.67;;;2.90;;
41903;SDS011;27586;51.124;4.182;2024-01-15T01:12:29;5.87;;;3.00;;
41903;SDS011;27586;51.124;4.182;2024-01-15T01:14:55;5.55;;;2.75;;
41903;SDS011;27586;51.124;4.182;2024-01-15T01:17:21;5.32;;;2.75;;
41903;SDS011;27586;51.124;4.182;2024-01-15T01:19:47;5.43;;;3.50;;
41903;SDS011;27586;51.124;4.182;2024-01-15T01:22:12;5.27;;;3.10;;
41903;SDS011;27586;51.124;4.182;2024-01-15T01:24:38;4.40;;;2.90;;
41903;SDS011;27586;51.124;4.182;2024-01-15T01:27:04;5.53;;;3.70;;
41903;SDS011;27586;51.124;4.182;2024-01-15T01:29:29;5.40;;;3.30;;
41903;SDS011;27586;51.124;4.182;2024-01-15T01:31:55;5.82;;;2.90;;
41903;SDS011;27586;51.124;4.182;2024-01-15T01:34:21;5.15;;;2.50;;
41903;SDS011;27586;51.124;4.182;2024-01-15T01:36:47;3.50;;;1.90;;
41903;SDS011;27586;51.124;4.182;2024-01-15T01:39:13;4.13;;;1.27;;
41903;SDS011;27586;51.124;4.182;2024-01-15T01:41:39;4.30;;;1.52;;
41903;SDS011;27586;51.124;4.182;2024-01-15T01:44:05;2.83;;;1.40;;
41903;SDS011;27586;51.124;4.182;2024-01-15T01:46:32;4.23;;;1.20;;
41903;SDS011;27586;51.124;4.182;2024-01-15T01:48:58;4.15;;;1.08;;
41903;SDS011;27586;51.124;4.182;2024-01-15T01:51:30;5.63;;;1.10;;
41903;SDS011;27586;51.124;4.182;2024-01-15T01:53:56;3.58;;;1.45;;
41903;SDS011;27586;51.124;4.182;2024-01-15T01:56:22;5.38;;;1.10;;
41903;SDS011;27586;51.124;4.182;2024-01-15T01:58:47;3.70;;;1.13;;
41903;SDS011;27586;51.124;4.182;2024-01-15T02:01:13;4.65;;;1.70;;
41903;SDS011;27586;51.124;4.182;2024-01-15T02:03:40;5.60;;;1.77;;
41903;SDS011;27586;51.124;4.182;2024-01-15T02:06:06;3.88;;;1.40;;
41903;SDS011;27586;51.124;4.182;2024-01-15T02:08:33;6.53;;;1.30;;
41903;SDS011;27586;51.124;4.182;2024-01-15T02:10:59;4.43;;;1.20;;
41903;SDS011;27586;51.124;4.182;2024-01-15T02:13:25;4.75;;;1.10;;
41903;SDS011;27586;51.124;4.182;2024-01-15T02:15:51;5.40;;;1.20;;
41903;SDS011;27586;51.124;4.182;2024-01-15T02:18:17;2.65;;;0.80;;
41903;SDS011;27586;51.124;4.182;2024-01-15T02:20:42;3.13;;;1.30;;
41903;SDS011;27586;51.124;4.182;2024-01-15T02:25:39;6.95;;;1.33;;
41903;SDS011;27586;51.124;4.182;2024-01-15T02:28:07;4.53;;;1.33;;
41903;SDS011;27586;51.124;4.182;2024-01-15T02:30:36;5.40;;;1.30;;
41903;SDS011;27586;51.124;4.182;2024-01-15T02:33:04;3.05;;;1.23;;
41903;SDS011;27586;51.124;4.182;2024-01-15T02:35:30;3.97;;;1.17;;
41903;SDS011;27586;51.124;4.182;2024-01-15T02:37:55;5.97;;;1.55;;
41903;SDS011;27586;51.124;4.182;2024-01-15T02:40:21;4.43;;;1.43;;
41903;SDS011;27586;51.124;4.182;2024-01-15T02:42:47;4.35;;;1.30;;
41903;SDS011;27586;51.124;4.182;2024-01-15T02:45:12;5.93;;;1.23;;
41903;SDS011;27586;51.124;4.182;2024-01-15T02:47:38;3.20;;;1.20;;
41903;SDS011;27586;51.124;4.182;2024-01-15T02:50:04;3.53;;;1.50;;
41903;SDS011;27586;51.124;4.182;2024-01-15T02:52:30;2.93;;;1.70;;
41903;SDS011;27586;51.124;4.182;2024-01-15T02:54:55;3.55;;;1.65;;
41903;SDS011;27586;51.124;4.182;2024-01-15T02:57:21;3.40;;;1.55;;
41903;SDS011;27586;51.124;4.182;2024-01-15T02:59:47;3.92;;;1.88;;
41903;SDS011;27586;51.124;4.182;2024-01-15T03:02:12;5.00;;;2.30;;
41903;SDS011;27586;51.124;4.182;2024-01-15T03:04:42;10.17;;;2.60;;
41903;SDS011;27586;51.124;4.182;2024-01-15T03:07:08;4.90;;;2.42;;
41903;SDS011;27586;51.124;4.182;2024-01-15T03:09:34;3.83;;;2.67;;
41903;SDS011;27586;51.124;4.182;2024-01-15T03:12:00;5.15;;;2.97;;
41903;SDS011;27586;51.124;4.182;2024-01-15T03:14:26;7.78;;;3.08;;
41903;SDS011;27586;51.124;4.182;2024-01-15T03:16:52;7.40;;;3.47;;
41903;SDS011;27586;51.124;4.182;2024-01-15T03:19:18;8.10;;;3.13;;
41903;SDS011;27586;51.124;4.182;2024-01-15T03:21:44;3.83;;;2.70;;
41903;SDS011;27586;51.124;4.182;2024-01-15T03:24:09;6.68;;;3.30;;
41903;SDS011;27586;51.124;4.182;2024-01-15T03:26:35;4.68;;;3.22;;
41903;SDS011;27586;51.124;4.182;2024-01-15T03:29:01;4.75;;;3.78;;
41903;SDS011;27586;51.124;4.182;2024-01-15T03:31:26;5.22;;;3.05;;
41903;SDS011;27586;51.124;4.182;2024-01-15T03:33:52;6.10;;;2.90;;
41903;SDS011;27586;51.124;4.182;2024-01-15T03:36:18;6.10;;;3.35;;
41903;SDS011;27586;51.124;4.182;2024-01-15T03:38:43;4.53;;;3.10;;
41903;SDS011;27586;51.124;4.182;2024-01-15T03:41:09;5.53;;;3.70;;
41903;SDS011;27586;51.124;4.182;2024-01-15T03:43:35;6.40;;;3.87;;
41903;SDS011;27586;51.124;4.182;2024-01-15T03:46:00;5.77;;;3.60;;
41903;SDS011;27586;51.124;4.182;2024-01-15T03:48:27;6.37;;;3.70;;
41903;SDS011;27586;51.124;4.182;2024-01-15T03:50:52;4.90;;;3.80;;
41903;SDS011;27586;51.124;4.182;2024-01-15T03:53:18;5.50;;;3.40;;
41903;SDS011;27586;51.124;4.182;2024-01-15T03:55:44;4.93;;;3.40;;
41903;SDS011;27586;51.124;4.182;2024-01-15T03:58:10;7.10;;;3.20;;
41903;SDS011;27586;51.124;4.182;2024-01-15T04:00:35;5.97;;;3.80;;
41903;SDS011;27586;51.124;4.182;2024-01-15T04:03:01;6.03;;;3.60;;
41903;SDS011;27586;51.124;4.182;2024-01-15T04:05:27;5.47;;;3.30;;
41903;SDS011;27586;51.124;4.182;2024-01-15T04:07:52;4.97;;;3.37;;
41903;SDS011;27586;51.124;4.182;2024-01-15T04:10:18;7.40;;;3.50;;
41903;SDS011;27586;51.124;4.182;2024-01-15T04:12:44;6.67;;;3.37;;
41903;SDS011;27586;51.124;4.182;2024-01-15T04:15:11;7.20;;;3.47;;
41903;SDS011;27586;51.124;4.182;2024-01-15T04:17:37;7.47;;;3.30;;
41903;SDS011;27586;51.124;4.182;2024-01-15T04:20:03;6.93;;;3.63;;
41903;SDS011;27586;51.124;4.182;2024-01-15T04:22:29;7.57;;;3.33;;
41903;SDS011;27586;51.124;4.182;2024-01-15T04:24:55;7.70;;;3.37;;
41903;SDS011;27586;51.124;4.182;2024-01-15T04:27:21;7.47;;;3.33;;
41903;SDS011;27586;51.124;4.182;2024-01-15T04:29:46;6.10;;;3.50;;
41903;SDS011;27586;51.124;4.182;2024-01-15T04:32:12;5.40;;;3.30;;
41903;SDS011;27586;51.124;4.182;2024-01-15T04:34:38;4.27;;;2.90;;
41903;SDS011;27586;51.124;4.182;2024-01-15T04:37:03;6.73;;;3.60;;
41903;SDS011;27586;51.124;4.182;2024-01-15T04:39:29;5.73;;;3.30;;
41903;SDS011;27586;51.124;4.182;2024-01-15T04:41:55;5.07;;;3.17;;
41903;SDS011;27586;51.124;4.182;2024-01-15T04:44:20;10.80;;;4.37;;
41903;SDS011;27586;51.124;4.182;2024-01-15T04:46:46;7.67;;;3.63;;
41903;SDS011;27586;51.124;4.182;2024-01-15T04:49:12;4.77;;;3.33;;
41903;SDS011;27586;51.124;4.182;2024-01-15T04:51:37;7.40;;;3.67;;
41903;SDS011;27586;51.124;4.182;2024-01-15T04:54:03;5.47;;;3.70;;
41903;SDS011;27586;51.124;4.182;2024-01-15T04:56:29;8.37;;;3.37;;
41903;SDS011;27586;51.124;4.182;2024-01-15T04:58:54;7.60;;;3.07;;
41903;SDS011;27586;51.124;4.182;2024-01-15T05:01:20;6.07;;;3.10;;
41903;SDS011;27586;51.124;4.182;2024-01-15T05:03:46;5.77;;;3.00;;
41903;SDS011;27586;51.124;4.182;2024-01-15T05:06:11;6.77;;;3.07;;
41903;SDS011;27586;51.124;4.182;2024-01-15T05:08:37;8.40;;;2.90;;
41903;SDS011;27586;51.124;4.182;2024-01-15T05:11:03;5.30;;;2.67;;
41903;SDS011;27586;51.124;4.182;2024-01-15T05:13:28;8.20;;;3.13;;
41903;SDS011;27586;51.124;4.182;2024-01-15T05:15:54;7.37;;;3.00;;
41903;SDS011;27586;51.124;4.182;2024-01-15T05:18:20;6.37;;;2.50;;
41903;SDS011;27586;51.124;4.182;2024-01-15T05:20:45;7.27;;;2.50;;
41903;SDS011;27586;51.124;4.182;2024-01-15T05:23:11;5.80;;;2.67;;
41903;SDS011;27586;51.124;4.182;2024-01-15T05:25:37;5.33;;;2.87;;
41903;SDS011;27586;51.124;4.182;2024-01-15T05:28:02;6.60;;;2.57;;
41903;SDS011;27586;51.124;4.182;2024-01-15T05:30:29;6.83;;;3.20;;
41903;SDS011;27586;51.124;4.182;2024-01-15T05:32:55;8.33;;;2.47;;
41903;SDS011;27586;51.124;4.182;2024-01-15T05:35:20;5.47;;;2.43;;
41903;SDS011;27586;51.124;4.182;2024-01-15T05:37:46;5.67;;;2.33;;
41903;SDS011;27586;51.124;4.182;2024-01-15T05:40:12;5.87;;;2.10;;
41903;SDS011;27586;51.124;4.182;2024-01-15T05:42:38;5.97;;;2.40;;
41903;SDS011;27586;51.124;4.182;2024-01-15T05:45:05;5.70;;;2.20;;
41903;SDS011;27586;51.124;4.182;2024-01-15T05:47:31;6.67;;;2.40;;
41903;SDS011;27586;51.124;4.182;2024-01-15T05:49:57;5.10;;;2.03;;
41903;SDS011;27586;51.124;4.182;2024-01-15T05:52:23;5.43;;;1.87;;
41903;SDS011;27586;51.124;4.182;2024-01-15T05:54:49;6.83;;;2.53;;
41903;SDS011;27586;51.124;4.182;2024-01-15T05:57:15;5.20;;;1.83;;
41903;SDS011;27586;51.124;4.182;2024-01-15T05:59:41;7.50;;;2.23;;
41903;SDS011;27586;51.124;4.182;2024-01-15T06:02:07;8.37;;;2.20;;
41903;SDS011;27586;51.124;4.182;2024-01-15T06:04:33;6.30;;;2.00;;
41903;SDS011;27586;51.124;4.182;2024-01-15T06:06:59;5.20;;;2.10;;
41903;SDS011;27586;51.124;4.182;2024-01-15T06:09:24;7.90;;;2.23;;
41903;SDS011;27586;51.124;4.182;2024-01-15T06:11:50;8.87;;;2.70;;
41903;SDS011;27586;51.124;4.182;2024-01-15T06:14:16;3.97;;;1.83;;
41903;SDS011;27586;51.124;4.182;2024-01-15T06:16:41;5.43;;;2.00;;
41903;SDS011;27586;51.124;4.182;2024-01-15T06:19:07;6.60;;;2.37;;
41903;SDS011;27586;51.124;4.182;2024-01-15T06:21:33;5.57;;;2.00;;
41903;SDS011;27586;51.124;4.182;2024-01-15T06:23:58;7.13;;;2.27;;
41903;SDS011;27586;51.124;4.182;2024-01-15T06:26:24;8.47;;;2.67;;
41903;SDS011;27586;51.124;4.182;2024-01-15T06:28:50;6.30;;;2.60;;
41903;SDS011;27586;51.124;4.182;2024-01-15T06:31:15;6.37;;;2.73;;
41903;SDS011;27586;51.124;4.182;2024-01-15T06:33:41;9.00;;;2.93;;
41903;SDS011;27586;51.124;4.182;2024-01-15T06:36:07;8.73;;;3.23;;
41903;SDS011;27586;51.124;4.182;2024-01-15T06:38:33;6.20;;;2.53;;
41903;SDS011;27586;51.124;4.182;2024-01-15T06:40:59;5.43;;;2.40;;
41903;SDS011;27586;51.124;4.182;2024-01-15T06:43:25;5.03;;;3.00;;
41903;SDS011;27586;51.124;4.182;2024-01-15T06:45:51;6.10;;;2.87;;
41903;SDS011;27586;51.124;4.182;2024-01-15T06:48:16;6.57;;;3.43;;
41903;SDS011;27586;51.124;4.182;2024-01-15T06:50:42;7.97;;;3.17;;
41903;SDS011;27586;51.124;4.182;2024-01-15T06:53:08;7.30;;;3.10;;
41903;SDS011;27586;51.124;4.182;2024-01-15T06:55:34;5.47;;;2.43;;
41903;SDS011;27586;51.124;4.182;2024-01-15T06:57:59;7.50;;;2.70;;
41903;SDS011;27586;51.124;4.182;2024-01-15T07:00:25;5.43;;;2.80;;
41903;SDS011;27586;51.124;4.182;2024-01-15T07:02:52;4.67;;;2.70;;
41903;SDS011;27586;51.124;4.182;2024-01-15T07:05:19;9.70;;;2.90;;
41903;SDS011;27586;51.124;4.182;2024-01-15T07:07:45;7.33;;;2.80;;
41903;SDS011;27586;51.124;4.182;2024-01-15T07:10:12;7.27;;;2.80;;
41903;SDS011;27586;51.124;4.182;2024-01-15T07:12:38;13.37;;;3.37;;
41903;SDS011;27586;51.124;4.182;2024-01-15T07:15:06;8.33;;;2.83;;
41903;SDS011;27586;51.124;4.182;2024-01-15T07:17:33;5.73;;;2.70;;
41903;SDS011;27586;51.124;4.182;2024-01-15T07:19:59;5.57;;;2.70;;
41903;SDS011;27586;51.124;4.182;2024-01-15T07:22:25;6.93;;;2.78;;
41903;SDS011;27586;51.124;4.182;2024-01-15T07:24:50;8.07;;;2.80;;
41903;SDS011;27586;51.124;4.182;2024-01-15T07:27:16;5.03;;;2.30;;
41903;SDS011;27586;51.124;4.182;2024-01-15T07:29:42;9.83;;;2.67;;
41903;SDS011;27586;51.124;4.182;2024-01-15T07:32:08;8.03;;;2.30;;
41903;SDS011;27586;51.124;4.182;2024-01-15T07:34:34;8.50;;;2.10;;
41903;SDS011;27586;51.124;4.182;2024-01-15T07:37:00;10.10;;;2.00;;
41903;SDS011;27586;51.124;4.182;2024-01-15T07:39:26;5.80;;;2.13;;
41903;SDS011;27586;51.124;4.182;2024-01-15T07:41:53;5.22;;;1.92;;
41903;SDS011;27586;51.124;4.182;2024-01-15T07:44:19;8.30;;;1.98;;
41903;SDS011;27586;51.124;4.182;2024-01-15T07:46:45;9.53;;;1.90;;
41903;SDS011;27586;51.124;4.182;2024-01-15T07:49:11;6.50;;;1.73;;
41903;SDS011;27586;51.124;4.182;2024-01-15T07:51:37;7.23;;;1.90;;
41903;SDS011;27586;51.124;4.182;2024-01-15T07:54:03;7.37;;;1.87;;
41903;SDS011;27586;51.124;4.182;2024-01-15T07:56:29;6.13;;;1.60;;
41903;SDS011;27586;51.124;4.182;2024-01-15T07:58:54;5.20;;;1.97;;
41903;SDS011;27586;51.124;4.182;2024-01-15T08:01:21;4.87;;;2.00;;
41903;SDS011;27586;51.124;4.182;2024-01-15T08:03:47;7.40;;;2.33;;
41903;SDS011;27586;51.124;4.182;2024-01-15T08:06:13;4.97;;;2.10;;
41903;SDS011;27586;51.124;4.182;2024-01-15T08:08:38;7.83;;;1.77;;
41903;SDS011;27586;51.124;4.182;2024-01-15T08:11:04;4.20;;;1.30;;
41903;SDS011;27586;51.124;4.182;2024-01-15T08:13:30;6.03;;;1.90;;
41903;SDS011;27586;51.124;4.182;2024-01-15T08:15:56;5.63;;;1.70;;
41903;SDS011;27586;51.124;4.182;2024-01-15T08:18:22;5.33;;;1.60;;
41903;SDS011;27586;51.124;4.182;2024-01-15T08:20:47;5.83;;;1.90;;
41903;SDS011;27586;51.124;4.182;2024-01-15T08:23:13;5.87;;;1.80;;
41903;SDS011;27586;51.124;4.182;2024-01-15T08:25:39;5.37;;;1.80;;
41903;SDS011;27586;51.124;4.182;2024-01-15T08:28:04;7.00;;;1.93;;
41903;SDS011;27586;51.124;4.182;2024-01-15T08:30:30;7.07;;;1.50;;
41903;SDS011;27586;51.124;4.182;2024-01-15T08:32:56;3.20;;;1.53;;
41903;SDS011;27586;51.124;4.182;2024-01-15T08:35:22;3.33;;;1.43;;
41903;SDS011;27586;51.124;4.182;2024-01-15T08:37:51;3.90;;;1.37;;
41903;SDS011;27586;51.124;4.182;2024-01-15T08:40:17;7.57;;;1.70;;
41903;SDS011;27586;51.124;4.182;2024-01-15T08:42:43;5.87;;;1.80;;
41903;SDS011;27586;51.124;4.182;2024-01-15T08:45:10;8.02;;;1.92;;
41903;SDS011;27586;51.124;4.182;2024-01-15T08:47:36;6.40;;;2.57;;
41903;SDS011;27586;51.124;4.182;2024-01-15T08:50:02;6.43;;;1.97;;
41903;SDS011;27586;51.124;4.182;2024-01-15T08:52:29;9.03;;;2.77;;
41903;SDS011;27586;51.124;4.182;2024-01-15T08:54:57;4.77;;;1.90;;
41903;SDS011;27586;51.124;4.182;2024-01-15T08:57:23;7.70;;;2.10;;
41903;SDS011;27586;51.124;4.182;2024-01-15T08:59:49;7.65;;;2.30;;
41903;SDS011;27586;51.124;4.182;2024-01-15T09:02:16;8.07;;;2.17;;
41903;SDS011;27586;51.124;4.182;2024-01-15T09:04:41;8.18;;;2.22;;
41903;SDS011;27586;51.124;4.182;2024-01-15T09:07:07;8.17;;;2.43;;
41903;SDS011;27586;51.124;4.182;2024-01-15T09:09:33;5.87;;;1.97;;
41903;SDS011;27586;51.124;4.182;2024-01-15T09:12:00;9.17;;;2.40;;
41903;SDS011;27586;51.124;4.182;2024-01-15T09:14:25;7.03;;;2.13;;
41903;SDS011;27586;51.124;4.182;2024-01-15T09:16:52;5.65;;;2.40;;
41903;SDS011;27586;51.124;4.182;2024-01-15T09:19:18;5.27;;;1.90;;
41903;SDS011;27586;51.124;4.182;2024-01-15T09:21:44;6.47;;;2.27;;
41903;SDS011;27586;51.124;4.182;2024-01-15T09:24:10;6.07;;;1.83;;
41903;SDS011;27586;51.124;4.182;2024-01-15T09:26:36;6.43;;;1.97;;
41903;SDS011;27586;51.124;4.182;2024-01-15T09:29:01;4.75;;;2.15;;
41903;SDS011;27586;51.124;4.182;2024-01-15T09:31:28;6.82;;;1.80;;
41903;SDS011;27586;51.124;4.182;2024-01-15T09:33:53;7.97;;;2.07;;
41903;SDS011;27586;51.124;4.182;2024-01-15T09:36:24;5.95;;;2.40;;
41903;SDS011;27586;51.124;4.182;2024-01-15T09:38:50;5.05;;;1.98;;
41903;SDS011;27586;51.124;4.182;2024-01-15T09:41:16;7.22;;;2.45;;
41903;SDS011;27586;51.124;4.182;2024-01-15T09:43:42;6.07;;;1.98;;
41903;SDS011;27586;51.124;4.182;2024-01-15T09:46:08;5.33;;;1.80;;
41903;SDS011;27586;51.124;4.182;2024-01-15T09:48:34;6.23;;;2.10;;
41903;SDS011;27586;51.124;4.182;2024-01-15T09:51:03;4.30;;;1.70;;
41903;SDS011;27586;51.124;4.182;2024-01-15T09:53:30;5.90;;;2.17;;
41903;SDS011;27586;51.124;4.182;2024-01-15T09:55:57;6.73;;;1.70;;
41903;SDS011;27586;51.124;4.182;2024-01-15T09:58:23;8.13;;;1.95;;
41903;SDS011;27586;51.124;4.182;2024-01-15T10:00:49;7.73;;;1.50;;
41903;SDS011;27586;51.124;4.182;2024-01-15T10:03:16;4.78;;;1.42;;
41903;SDS011;27586;51.124;4.182;2024-01-15T10:05:43;7.15;;;1.50;;
41903;SDS011;27586;51.124;4.182;2024-01-15T10:08:08;6.95;;;2.13;;
41903;SDS011;27586;51.124;4.182;2024-01-15T10:10:36;7.55;;;1.73;;
41903;SDS011;27586;51.124;4.182;2024-01-15T10:13:03;5.10;;;1.70;;
41903;SDS011;27586;51.124;4.182;2024-01-15T10:15:29;5.75;;;2.05;;
41903;SDS011;27586;51.124;4.182;2024-01-15T10:17:58;4.75;;;1.48;;
41903;SDS011;27586;51.124;4.182;2024-01-15T10:20:24;6.97;;;1.60;;
41903;SDS011;27586;51.124;4.182;2024-01-15T10:22:50;4.80;;;1.50;;
41903;SDS011;27586;51.124;4.182;2024-01-15T10:25:16;6.78;;;1.75;;
41903;SDS011;27586;51.124;4.182;2024-01-15T10:27:47;4.28;;;1.58;;
41903;SDS011;27586;51.124;4.182;2024-01-15T10:30:28;6.20;;;1.73;;
41903;SDS011;27586;51.124;4.182;2024-01-15T10:33:00;4.25;;;1.55;;
41903;SDS011;27586;51.124;4.182;2024-01-15T10:35:30;4.53;;;1.40;;
41903;SDS011;27586;51.124;4.182;2024-01-15T10:37:56;8.82;;;2.03;;
41903;SDS011;27586;51.124;4.182;2024-01-15T10:40:23;5.22;;;1.42;;
41903;SDS011;27586;51.124;4.182;2024-01-15T10:42:49;5.13;;;1.70;;
41903;SDS011;27586;51.124;4.182;2024-01-15T10:45:15;4.95;;;1.20;;
41903;SDS011;27586;51.124;4.182;2024-01-15T10:47:41;5.50;;;1.73;;
41903;SDS011;27586;51.124;4.182;2024-01-15T10:50:08;6.28;;;1.65;;
41903;SDS011;27586;51.124;4.182;2024-01-15T10:52:35;4.82;;;1.50;;
41903;SDS011;27586;51.124;4.182;2024-01-15T10:55:02;5.45;;;1.48;;
41903;SDS011;27586;51.124;4.182;2024-01-15T10:57:29;4.68;;;1.30;;
41903;SDS011;27586;51.124;4.182;2024-01-15T10:59:55;6.72;;;1.98;;
41903;SDS011;27586;51.124;4.182;2024-01-15T11:02:21;4.90;;;1.30;;
41903;SDS011;27586;51.124;4.182;2024-01-15T11:04:47;4.53;;;1.58;;
41903;SDS011;27586;51.124;4.182;2024-01-15T11:07:13;6.80;;;1.30;;
41903;SDS011;27586;51.124;4.182;2024-01-15T11:09:39;5.53;;;1.50;;
41903;SDS011;27586;51.124;4.182;2024-01-15T11:12:11;4.38;;;1.60;;
41903;SDS011;27586;51.124;4.182;2024-01-15T11:17:05;5.15;;;1.60;;
41903;SDS011;27586;51.124;4.182;2024-01-15T11:19:37;6.65;;;1.52;;
41903;SDS011;27586;51.124;4.182;2024-01-15T11:22:08;6.30;;;1.70;;
41903;SDS011;27586;51.124;4.182;2024-01-15T11:24:41;5.82;;;1.25;;
41903;SDS011;27586;51.124;4.182;2024-01-15T11:27:07;3.45;;;1.48;;
41903;SDS011;27586;51.124;4.182;2024-01-15T11:29:34;2.90;;;1.23;;
41903;SDS011;27586;51.124;4.182;2024-01-15T11:32:01;6.00;;;1.85;;
41903;SDS011;27586;51.124;4.182;2024-01-15T11:37:17;7.75;;;1.83;;
41903;SDS011;27586;51.124;4.182;2024-01-15T11:39:43;4.40;;;1.40;;
41903;SDS011;27586;51.124;4.182;2024-01-15T11:42:10;5.03;;;1.92;;
41903;SDS011;27586;51.124;4.182;2024-01-15T11:44:37;7.88;;;1.83;;
41903;SDS011;27586;51.124;4.182;2024-01-15T11:47:04;5.25;;;1.52;;
41903;SDS011;27586;51.124;4.182;2024-01-15T11:52:36;5.25;;;1.65;;
41903;SDS011;27586;51.124;4.182;2024-01-15T11:55:14;5.20;;;1.35;;
41903;SDS011;27586;51.124;4.182;2024-01-15T11:57:51;8.45;;;1.58;;
41903;SDS011;27586;51.124;4.182;2024-01-15T12:00:19;8.55;;;1.65;;
41903;SDS011;27586;51.124;4.182;2024-01-15T12:02:46;4.22;;;1.65;;
41903;SDS011;27586;51.124;4.182;2024-01-15T12:05:14;4.38;;;1.25;;
41903;SDS011;27586;51.124;4.182;2024-01-15T12:07:41;4.10;;;1.25;;
41903;SDS011;27586;51.124;4.182;2024-01-15T12:10:08;4.30;;;1.70;;
41903;SDS011;27586;51.124;4.182;2024-01-15T12:12:54;4.82;;;1.60;;
41903;SDS011;27586;51.124;4.182;2024-01-15T12:15:29;5.03;;;1.30;;
41903;SDS011;27586;51.124;4.182;2024-01-15T12:17:55;6.00;;;1.77;;
41903;SDS011;27586;51.124;4.182;2024-01-15T12:20:23;7.47;;;2.13;;
41903;SDS011;27586;51.124;4.182;2024-01-15T12:22:49;6.63;;;1.73;;
41903;SDS011;27586;51.124;4.182;2024-01-15T12:25:15;6.28;;;1.92;;
41903;SDS011;27586;51.124;4.182;2024-01-15T12:27:41;4.63;;;1.40;;
41903;SDS011;27586;51.124;4.182;2024-01-15T12:30:06;6.72;;;1.88;;
41903;SDS011;27586;51.124;4.182;2024-01-15T12:32:35;10.18;;;2.15;;
41903;SDS011;27586;51.124;4.182;2024-01-15T12:35:01;9.52;;;2.13;;
41903;SDS011;27586;51.124;4.182;2024-01-15T12:37:27;6.40;;;2.20;;
41903;SDS011;27586;51.124;4.182;2024-01-15T12:39:54;5.25;;;1.35;;
41903;SDS011;27586;51.124;4.182;2024-01-15T12:42:21;3.33;;;0.90;;
41903;SDS011;27586;51.124;4.182;2024-01-15T12:44:47;5.80;;;0.90;;
41903;SDS011;27586;51.124;4.182;2024-01-15T12:47:12;0.80;;;0.40;;
41903;SDS011;27586;51.124;4.182;2024-01-15T12:49:39;1.20;;;0.40;;
41903;SDS011;27586;51.124;4.182;2024-01-15T12:52:08;0.90;;;0.50;;
41903;SDS011;27586;51.124;4.182;2024-01-15T12:54:34;2.17;;;0.80;;
41903;SDS011;27586;51.124;4.182;2024-01-15T12:57:00;3.20;;;1.30;;
41903;SDS011;27586;51.124;4.182;2024-01-15T12:59:26;1.67;;;0.80;;
41903;SDS011;27586;51.124;4.182;2024-01-15T13:01:52;2.30;;;1.20;;
41903;SDS011;27586;51.124;4.182;2024-01-15T13:04:21;2.20;;;0.87;;
41903;SDS011;27586;51.124;4.182;2024-01-15T13:06:52;4.50;;;1.30;;
41903;SDS011;27586;51.124;4.182;2024-01-15T13:09:18;2.97;;;1.00;;
41903;SDS011;27586;51.124;4.182;2024-01-15T13:11:46;2.73;;;1.00;;
41903;SDS011;27586;51.124;4.182;2024-01-15T13:14:12;1.50;;;1.00;;
41903;SDS011;27586;51.124;4.182;2024-01-15T13:16:39;0.93;;;0.60;;
41903;SDS011;27586;51.124;4.182;2024-01-15T13:19:06;0.77;;;0.63;;
41903;SDS011;27586;51.124;4.182;2024-01-15T13:21:33;0.80;;;0.50;;
41903;SDS011;27586;51.124;4.182;2024-01-15T13:23:59;0.87;;;0.50;;
41903;SDS011;27586;51.124;4.182;2024-01-15T13:26:24;3.53;;;0.70;;
41903;SDS011;27586;51.124;4.182;2024-01-15T13:28:50;2.97;;;1.30;;
41903;SDS011;27586;51.124;4.182;2024-01-15T13:31:16;3.10;;;1.47;;
41903;SDS011;27586;51.124;4.182;2024-01-15T13:33:42;2.60;;;0.97;;
41903;SDS011;27586;51.124;4.182;2024-01-15T13:36:07;1.17;;;0.60;;
41903;SDS011;27586;51.124;4.182;2024-01-15T13:38:36;1.57;;;0.80;;
41903;SDS011;27586;51.124;4.182;2024-01-15T13:41:04;2.67;;;0.80;;
41903;SDS011;27586;51.124;4.182;2024-01-15T13:43:31;3.10;;;0.80;;
41903;SDS011;27586;51.124;4.182;2024-01-15T13:45:57;1.23;;;0.80;;
41903;SDS011;27586;51.124;4.182;2024-01-15T13:48:23;1.90;;;0.97;;
41903;SDS011;27586;51.124;4.182;2024-01-15T13:50:49;5.13;;;1.20;;
41903;SDS011;27586;51.124;4.182;2024-01-15T13:53:16;3.80;;;0.90;;
41903;SDS011;27586;51.124;4.182;2024-01-15T13:55:41;4.77;;;1.57;;
41903;SDS011;27586;51.124;4.182;2024-01-15T13:58:07;6.13;;;1.50;;
41903;SDS011;27586;51.124;4.182;2024-01-15T14:00:33;4.07;;;1.27;;
41903;SDS011;27586;51.124;4.182;2024-01-15T14:02:58;4.28;;;1.50;;
41903;SDS011;27586;51.124;4.182;2024-01-15T14:05:24;4.63;;;1.73;;
41903;SDS011;27586;51.124;4.182;2024-01-15T14:07:50;6.60;;;1.33;;
41903;SDS011;27586;51.124;4.182;2024-01-15T14:10:15;6.60;;;1.40;;
41903;SDS011;27586;51.124;4.182;2024-01-15T14:12:41;3.87;;;1.30;;
41903;SDS011;27586;51.124;4.182;2024-01-15T14:15:08;5.03;;;1.33;;
41903;SDS011;27586;51.124;4.182;2024-01-15T14:17:34;4.47;;;1.37;;
41903;SDS011;27586;51.124;4.182;2024-01-15T14:19:59;3.23;;;1.53;;
41903;SDS011;27586;51.124;4.182;2024-01-15T14:22:25;5.60;;;1.30;;
41903;SDS011;27586;51.124;4.182;2024-01-15T14:24:51;7.77;;;1.57;;
41903;SDS011;27586;51.124;4.182;2024-01-15T14:27:17;4.97;;;1.60;;
41903;SDS011;27586;51.124;4.182;2024-01-15T14:29:43;6.53;;;1.63;;
41903;SDS011;27586;51.124;4.182;2024-01-15T14:32:08;4.57;;;1.40;;
41903;SDS011;27586;51.124;4.182;2024-01-15T14:34:34;5.03;;;1.33;;
41903;SDS011;27586;51.124;4.182;2024-01-15T14:37:02;5.13;;;1.20;;
41903;SDS011;27586;51.124;4.182;2024-01-15T14:39:28;3.40;;;1.37;;
41903;SDS011;27586;51.124;4.182;2024-01-15T14:41:54;5.40;;;1.70;;
41903;SDS011;27586;51.124;4.182;2024-01-15T14:44:19;6.00;;;1.97;;
41903;SDS011;27586;51.124;4.182;2024-01-15T14:46:46;8.77;;;2.03;;
41903;SDS011;27586;51.124;4.182;2024-01-15T14:49:11;4.43;;;1.40;;
41903;SDS011;27586;51.124;4.182;2024-01-15T14:51:37;5.50;;;1.70;;
41903;SDS011;27586;51.124;4.182;2024-01-15T14:54:03;9.30;;;1.57;;